Time;durP1;ratioP1;P1;durP2;ratioP2;P2;SDS_P1;SDS_P2;PMS_P1;PMS_P2;Temp;Humidity;BMP_temperature;BMP_pressure;BME280_temperature;BME280_humidity;BME280_pressure;Samples;Min_cycle;Max_cycle;Signal;HPM_P1;HPM_P2
2023/12/26 00:00:02;;;;;;;;;;;;;;;1.83;96.27;94859.69;5016185;28;20389;-64
2023/12/26 00:02:28;;;;;;;;;;;;;;;1.76;96.39;94813.97;5015575;28;19925;-65
2023/12/26 00:04:53;;;;;;;;;;;;;;;1.81;95.60;94829.31;5016068;28;19917;-64
2023/12/26 00:07:18;;;;;;;;;;;;;;;2.11;95.04;94809.84;5015866;28;19921;-65
2023/12/26 00:09:44;;;;;;;;;;;;;;;2.29;93.54;94811.72;5016554;28;19960;-65
2023/12/26 00:12:09;;;;;;;;;;;;;;;2.01;92.98;94809.06;5017018;28;19932;-65
2023/12/26 00:14:34;;;;;;;;;;;;;;;1.86;94.81;94814.78;5012710;28;20075;-65
2023/12/26 00:16:59;;;;;;;;;;;;;;;2.17;94.90;94826.00;5016732;28;19921;-64
2023/12/26 00:19:25;;;;;;;;;;;;;;;2.49;91.89;94807.16;5016506;28;20517;-65
2023/12/26 00:21:50;;;;;;;;;;;;;;;2.67;90.73;94823.94;5017043;28;19925;-65
2023/12/26 00:24:15;;;;;;;;;;;;;;;2.23;92.80;94810.50;5016887;28;19917;-64
2023/12/26 00:26:41;;;;;;;;;;;;;;;2.77;90.10;94809.78;5015895;28;19933;-65
2023/12/26 00:29:06;;;;;;;;;;;;;;;1.99;93.08;94837.25;5014864;28;19924;-64
2023/12/26 00:31:31;;;;;;;;;;;;;;;2.35;91.15;94811.09;5016686;28;19947;-65
2023/12/26 00:33:57;;;;;;;;;;;;;;;2.26;92.17;94814.63;5016846;28;19921;-65
2023/12/26 00:36:22;;;;;;;;;;;;;;;2.66;90.29;94809.97;5016585;28;19929;-66
2023/12/26 00:38:48;;;;;;;;;;;;;;;2.07;92.12;94826.03;5016539;28;20016;-65
2023/12/26 00:41:16;;;;;;;;;;;;;;;2.63;89.70;94800.56;5016568;28;20007;-66
2023/12/26 00:43:41;;;;;;;;;;;;;;;2.59;88.42;94807.09;5016073;28;19921;-65
2023/12/26 00:46:06;;;;;;;;;;;;;;;2.68;87.82;94796.69;5016734;28;19921;-64
2023/12/26 00:48:32;;;;;;;;;;;;;;;2.63;88.97;94818.97;5020901;28;20946;-65
2023/12/26 00:50:58;;;;;;;;;;;;;;;2.24;90.50;94812.13;5020514;28;19964;-65
2023/12/26 00:53:24;;;;;;;;;;;;;;;1.91;91.96;94803.84;5018619;28;19925;-65
2023/12/26 00:55:49;;;;;;;;;;;;;;;2.30;91.49;94821.25;5019648;28;20038;-65
2023/12/26 00:58:15;;;;;;;;;;;;;;;2.10;92.34;94812.59;5019517;28;19933;-65
2023/12/26 01:00:40;;;;;;;;;;;;;;;2.30;91.97;94802.00;5020756;28;19921;-65
2023/12/26 01:03:05;;;;;;;;;;;;;;;2.45;90.06;94807.63;5017215;28;20294;-64
2023/12/26 01:05:30;;;;;;;;;;;;;;;2.27;91.30;94819.72;5019071;28;19929;-64
2023/12/26 01:07:57;;;;;;;;;;;;;;;2.24;91.60;94812.13;5017138;28;20332;-65
2023/12/26 01:10:22;;;;;;;;;;;;;;;2.48;90.12;94823.06;5018864;28;19928;-64
2023/12/26 01:12:47;;;;;;;;;;;;;;;2.19;90.41;94827.50;5017117;28;19921;-65
2023/12/26 01:15:14;;;;;;;;;;;;;;;2.19;92.39;94819.63;5012497;28;19962;-65
2023/12/26 01:17:39;;;;;;;;;;;;;;;2.29;94.24;94821.38;5019031;28;20008;-65
2023/12/26 01:20:05;;;;;;;;;;;;;;;2.66;92.24;94817.88;5019487;28;20433;-66
2023/12/26 01:22:30;;;;;;;;;;;;;;;2.64;92.64;94831.16;5017329;28;19925;-65
2023/12/26 01:24:55;;;;;;;;;;;;;;;2.70;91.66;94834.16;5016682;28;20386;-65
2023/12/26 01:27:21;;;;;;;;;;;;;;;1.92;95.84;94821.25;5018752;28;19921;-65
2023/12/26 01:29:46;;;;;;;;;;;;;;;2.15;94.88;94815.66;5018339;28;20041;-65
2023/12/26 01:32:11;;;;;;;;;;;;;;;3.07;90.45;94827.13;5020083;28;20718;-65
2023/12/26 01:34:37;;;;;;;;;;;;;;;2.52;90.74;94819.19;5019673;28;19928;-66
2023/12/26 01:37:02;;;;;;;;;;;;;;;3.00;87.92;94824.28;5019436;28;20557;-65
2023/12/26 01:39:28;;;;;;;;;;;;;;;2.42;90.63;94826.28;5018424;28;20024;-65
2023/12/26 01:41:53;;;;;;;;;;;;;;;1.84;93.77;94835.09;5018801;28;19921;-65
2023/12/26 01:44:18;;;;;;;;;;;;;;;2.31;93.50;94828.13;5018493;28;19928;-66
2023/12/26 01:46:43;;;;;;;;;;;;;;;2.19;92.64;94819.63;5018080;28;19921;-65
2023/12/26 01:49:09;;;;;;;;;;;;;;;1.74;95.99;94834.31;5018860;28;19913;-65
2023/12/26 01:51:34;;;;;;;;;;;;;;;1.81;96.23;94840.59;5018116;28;19925;-66
2023/12/26 01:53:59;;;;;;;;;;;;;;;2.01;94.13;94825.63;5012999;28;19924;-65
2023/12/26 01:56:26;;;;;;;;;;;;;;;2.00;94.11;94825.78;5017786;28;19917;-65
2023/12/26 01:58:51;;;;;;;;;;;;;;;2.08;91.02;94843.44;5017795;28;20408;-65
2023/12/26 02:01:16;;;;;;;;;;;;;;;2.06;90.02;94837.50;5018547;28;19927;-65
2023/12/26 02:03:42;;;;;;;;;;;;;;;2.03;91.39;94840.41;5016425;28;20086;-65
2023/12/26 02:06:07;;;;;;;;;;;;;;;2.35;90.12;94826.88;5018018;28;19921;-65
2023/12/26 02:08:33;;;;;;;;;;;;;;;2.36;88.48;94831.19;5015611;28;20449;-65
2023/12/26 02:10:58;;;;;;;;;;;;;;;1.99;88.85;94842.50;5018030;28;19998;-65
2023/12/26 02:13:23;;;;;;;;;;;;;;;2.05;91.08;94830.59;5017364;28;19928;-64
2023/12/26 02:15:49;;;;;;;;;;;;;;;2.27;90.25;94821.53;5015625;28;19983;-64
2023/12/26 02:18:14;;;;;;;;;;;;;;;2.06;85.92;94827.84;5017150;28;20027;-65
2023/12/26 02:20:39;;;;;;;;;;;;;;;1.90;90.27;94820.56;5018582;28;19920;-64
2023/12/26 02:23:04;;;;;;;;;;;;;;;2.27;88.95;94814.47;5016653;28;20460;-65
2023/12/26 02:25:29;;;;;;;;;;;;;;;2.57;87.69;94802.97;5017806;28;20120;-65
2023/12/26 02:27:55;;;;;;;;;;;;;;;2.61;86.07;94799.06;5019751;28;19913;-65
2023/12/26 02:30:20;;;;;;;;;;;;;;;2.10;84.83;94812.59;5018524;28;20390;-65
2023/12/26 02:32:46;;;;;;;;;;;;;;;2.81;84.90;94806.81;5020427;28;20337;-64
2023/12/26 02:35:12;;;;;;;;;;;;;;;3.15;83.45;94806.16;5015672;28;20180;-65
2023/12/26 02:37:37;;;;;;;;;;;;;;;2.85;82.81;94787.97;5016531;28;19931;-65
2023/12/26 02:40:03;;;;;;;;;;;;;;;2.82;84.21;94801.41;5017871;28;19925;-65
2023/12/26 02:42:31;;;;;;;;;;;;;;;2.36;85.75;94807.53;5019011;28;20419;-64
2023/12/26 02:44:56;;;;;;;;;;;;;;;1.91;87.28;94801.22;5020419;28;20392;-65
2023/12/26 02:47:22;;;;;;;;;;;;;;;2.54;85.69;94793.59;5018728;28;19925;-64
2023/12/26 02:49:47;;;;;;;;;;;;;;;2.37;86.56;94803.91;5019657;28;19955;-64
2023/12/26 02:52:12;;;;;;;;;;;;;;;2.29;86.95;94793.31;5016804;28;19925;-64
2023/12/26 02:54:38;;;;;;;;;;;;;;;1.37;91.59;94797.31;5017838;28;20406;-64
2023/12/26 02:57:03;;;;;;;;;;;;;;;1.69;92.64;94799.75;5017129;28;20414;-64
2023/12/26 02:59:28;;;;;;;;;;;;;;;1.13;96.02;94816.13;5016882;28;19925;-65
2023/12/26 03:01:54;;;;;;;;;;;;;;;1.24;95.14;94802.03;5017753;28;19921;-64
2023/12/26 03:04:19;;;;;;;;;;;;;;;0.96;97.71;94815.03;5018557;28;19921;-64
2023/12/26 03:06:45;;;;;;;;;;;;;;;0.70;98.05;94823.41;5017241;28;20921;-64
2023/12/26 03:09:10;;;;;;;;;;;;;;;0.61;98.37;94814.56;5017838;28;19927;-64
2023/12/26 03:11:35;;;;;;;;;;;;;;;1.17;97.15;94816.66;5016887;28;19960;-65
2023/12/26 03:14:00;;;;;;;;;;;;;;;1.52;93.01;94798.66;5020438;28;20290;-64
2023/12/26 03:16:26;;;;;;;;;;;;;;;1.14;96.53;94804.66;5016516;28;20485;-64
2023/12/26 03:18:51;;;;;;;;;;;;;;;1.46;94.62;94797.44;5017809;28;19932;-65
2023/12/26 03:21:16;;;;;;;;;;;;;;;1.54;93.88;94807.25;5011393;28;20298;-64
2023/12/26 03:23:41;;;;;;;;;;;;;;;1.21;95.52;94799.69;5016333;28;20202;-65
2023/12/26 03:26:07;;;;;;;;;;;;;;;1.64;94.50;94800.22;5016677;28;19991;-66
2023/12/26 03:28:32;;;;;;;;;;;;;;;1.54;94.84;94794.97;5016032;28;20419;-65
2023/12/26 03:30:57;;;;;;;;;;;;;;;1.72;92.38;94804.72;5016397;28;20091;-65
2023/12/26 03:33:23;;;;;;;;;;;;;;;1.83;92.29;94803.72;5017147;28;19929;-65
2023/12/26 03:35:48;;;;;;;;;;;;;;;1.34;93.74;94808.09;5016857;28;20434;-65
2023/12/26 03:38:15;;;;;;;;;;;;;;;1.39;94.46;94814.72;5015713;28;19995;-65
2023/12/26 03:40:40;;;;;;;;;;;;;;;1.43;91.90;94819.53;5016140;28;19925;-65
2023/12/26 03:43:06;;;;;;;;;;;;;;;1.03;96.07;94820.53;5016301;28;19921;-65
2023/12/26 03:45:31;;;;;;;;;;;;;;;1.31;94.05;94818.88;5015804;28;20571;-65
2023/12/26 03:47:56;;;;;;;;;;;;;;;1.58;91.10;94817.34;5016085;28;19921;-65
2023/12/26 03:50:21;;;;;;;;;;;;;;;1.12;93.07;94824.94;5016302;28;20020;-65
2023/12/26 03:52:47;;;;;;;;;;;;;;;0.95;98.01;94834.31;5013336;28;19925;-65
2023/12/26 03:55:14;;;;;;;;;;;;;;;0.70;96.82;94826.03;5016343;28;19921;-65
2023/12/26 03:57:41;;;;;;;;;;;;;;;1.44;94.38;94833.50;5015753;28;20556;-65
2023/12/26 04:00:09;;;;;;;;;;;;;;;1.49;94.01;94832.09;5016191;28;20531;-65
2023/12/26 04:02:34;;;;;;;;;;;;;;;1.54;94.71;94836.13;5015014;28;19929;-65
2023/12/26 04:05:00;;;;;;;;;;;;;;;1.01;94.66;94839.03;5016028;28;19917;-65
2023/12/26 04:07:25;;;;;;;;;;;;;;;1.08;94.04;94844.53;5015157;28;19956;-65
2023/12/26 04:09:50;;;;;;;;;;;;;;;0.72;96.45;94842.44;5016065;28;19948;-65
2023/12/26 04:12:15;;;;;;;;;;;;;;;0.45;99.12;94849.16;5014809;28;20133;-65
2023/12/26 04:14:41;;;;;;;;;;;;;;;0.70;96.92;94855.69;5014907;28;20036;-65
2023/12/26 04:17:06;;;;;;;;;;;;;;;0.45;98.23;94870.09;5016186;28;19984;-65
2023/12/26 04:19:31;;;;;;;;;;;;;;;0.67;97.89;94847.25;5016203;28;19925;-65
2023/12/26 04:21:57;;;;;;;;;;;;;;;0.49;97.77;94868.88;5014982;28;20470;-65
2023/12/26 04:24:22;;;;;;;;;;;;;;;0.41;98.53;94859.03;5016432;28;19921;-65
2023/12/26 04:26:47;;;;;;;;;;;;;;;0.27;100.00;94860.25;5015524;28;19921;-65
2023/12/26 04:29:13;;;;;;;;;;;;;;;0.50;98.84;94861.81;5015354;28;19925;-65
2023/12/26 04:31:38;;;;;;;;;;;;;;;0.91;96.90;94862.59;5016513;28;19928;-65
2023/12/26 04:34:03;;;;;;;;;;;;;;;0.60;96.84;94857.44;5016455;28;19929;-65
2023/12/26 04:36:32;;;;;;;;;;;;;;;0.60;97.12;94857.44;5016151;28;19929;-64
2023/12/26 04:38:57;;;;;;;;;;;;;;;0.81;95.61;94862.59;5016359;28;19921;-64
2023/12/26 04:41:23;;;;;;;;;;;;;;;1.14;94.60;94872.84;5016326;28;19932;-65
2023/12/26 04:43:48;;;;;;;;;;;;;;;1.00;94.97;94847.00;5016435;28;20119;-65
2023/12/26 04:46:17;;;;;;;;;;;;;;;0.71;94.88;94856.50;5016800;28;19933;-64
2023/12/26 04:48:42;;;;;;;;;;;;;;;0.81;96.40;94869.63;5016726;28;19925;-64
2023/12/26 04:51:07;;;;;;;;;;;;;;;0.57;97.31;94860.31;5016202;28;20407;-64
2023/12/26 04:53:32;;;;;;;;;;;;;;;0.50;97.67;94848.72;5016394;28;19917;-64
2023/12/26 04:55:58;;;;;;;;;;;;;;;0.65;97.13;94857.06;5016461;28;20574;-64
2023/12/26 04:58:23;;;;;;;;;;;;;;;0.59;96.70;94855.78;5016584;28;19925;-64
2023/12/26 05:00:48;;;;;;;;;;;;;;;0.49;97.25;94873.28;5016073;28;19925;-64
2023/12/26 05:03:14;;;;;;;;;;;;;;;0.50;98.97;94867.91;5016222;28;20428;-65
2023/12/26 05:05:39;;;;;;;;;;;;;;;0.59;96.82;94864.47;5015704;28;19964;-65
2023/12/26 05:08:04;;;;;;;;;;;;;;;0.68;98.37;94869.88;5010340;28;20566;-65
2023/12/26 05:10:32;;;;;;;;;;;;;;;0.35;99.12;94875.31;5015337;28;19935;-64
2023/12/26 05:12:57;;;;;;;;;;;;;;;0.33;98.98;94880.69;5016691;28;19933;-64
2023/12/26 05:15:22;;;;;;;;;;;;;;;0.69;97.73;94882.03;5016392;28;20401;-65
2023/12/26 05:17:48;;;;;;;;;;;;;;;0.53;98.20;94887.75;5015758;28;19933;-64
2023/12/26 05:20:13;;;;;;;;;;;;;;;0.62;99.47;94886.97;5016120;28;20023;-64
2023/12/26 05:22:38;;;;;;;;;;;;;;;0.74;97.41;94877.19;5015883;28;20361;-64
2023/12/26 05:25:04;;;;;;;;;;;;;;;0.77;98.82;94884.78;5016983;28;20577;-64
2023/12/26 05:27:29;;;;;;;;;;;;;;;0.46;100.00;94893.53;5014406;28;19925;-65
2023/12/26 05:29:55;;;;;;;;;;;;;;;0.49;98.30;94892.44;5011394;28;20452;-65
2023/12/26 05:32:20;;;;;;;;;;;;;;;0.60;100.00;94894.13;5019023;28;19960;-65
2023/12/26 05:34:48;;;;;;;;;;;;;;;0.58;100.00;94899.50;5019434;28;19976;-64
2023/12/26 05:37:13;;;;;;;;;;;;;;;0.41;100.00;94900.94;5020061;28;19921;-64
2023/12/26 05:39:38;;;;;;;;;;;;;;;0.59;99.80;94895.91;5019778;28;19925;-65
2023/12/26 05:42:04;;;;;;;;;;;;;;;0.42;100.00;94899.16;5018008;28;19956;-65
2023/12/26 05:44:29;;;;;;;;;;;;;;;0.57;100.00;94902.25;5019885;28;20445;-65
2023/12/26 05:46:54;;;;;;;;;;;;;;;0.54;99.92;94918.22;5019751;28;20580;-65
2023/12/26 05:49:19;;;;;;;;;;;;;;;0.65;100.00;94909.44;5020039;28;19960;-65
2023/12/26 05:51:45;;;;;;;;;;;;;;;0.48;100.00;94906.47;5019613;28;20447;-65
2023/12/26 05:54:10;;;;;;;;;;;;;;;0.71;100.00;94911.53;5015115;28;20373;-65
2023/12/26 05:56:35;;;;;;;;;;;;;;;1.19;98.50;94919.63;5019827;28;19921;-65
2023/12/26 05:59:00;;;;;;;;;;;;;;;0.92;98.12;94900.94;5019145;28;19921;-65
2023/12/26 06:01:26;;;;;;;;;;;;;;;1.05;98.31;94913.81;5019454;28;20434;-66
2023/12/26 06:03:51;;;;;;;;;;;;;;;1.05;99.37;94908.56;5019541;28;19917;-66
2023/12/26 06:06:17;;;;;;;;;;;;;;;1.41;97.49;94922.94;5018445;28;20027;-65
2023/12/26 06:08:42;;;;;;;;;;;;;;;1.30;96.48;94937.84;5019480;28;19921;-65
2023/12/26 06:11:07;;;;;;;;;;;;;;;1.10;95.74;94921.28;5019446;28;19952;-65
2023/12/26 06:13:33;;;;;;;;;;;;;;;1.00;97.91;94936.16;5017396;28;20445;-65
2023/12/26 06:15:58;;;;;;;;;;;;;;;1.31;96.31;94931.66;5016887;28;19978;-66
2023/12/26 06:18:24;;;;;;;;;;;;;;;1.36;94.88;94942.56;5018842;28;20386;-65
2023/12/26 06:20:49;;;;;;;;;;;;;;;1.19;96.10;94958.97;5018446;28;19928;-65
2023/12/26 06:23:14;;;;;;;;;;;;;;;0.90;96.56;94947.47;5014142;28;20501;-65
2023/12/26 06:25:40;;;;;;;;;;;;;;;0.96;98.18;94939.03;5018642;28;20058;-65
2023/12/26 06:28:05;;;;;;;;;;;;;;;1.03;97.10;94978.69;5014332;28;19925;-65
2023/12/26 06:30:30;;;;;;;;;;;;;;;1.33;96.48;94965.63;5014917;28;20383;-65
2023/12/26 06:32:55;;;;;;;;;;;;;;;1.27;96.50;94969.63;5024537;28;20024;-65
2023/12/26 06:35:21;;;;;;;;;;;;;;;1.31;96.63;94971.00;5018336;28;19929;-65
2023/12/26 06:37:46;;;;;;;;;;;;;;;1.32;95.48;94985.75;5019151;28;20385;-65
2023/12/26 06:40:11;;;;;;;;;;;;;;;0.75;96.45;94975.81;5019414;28;19932;-65
2023/12/26 06:42:36;;;;;;;;;;;;;;;0.72;96.48;94986.56;5018443;28;19975;-64
2023/12/26 06:45:02;;;;;;;;;;;;;;;0.91;98.33;94984.97;5018825;28;19921;-65
2023/12/26 06:47:27;;;;;;;;;;;;;;;0.69;97.51;94997.31;5018738;28;20409;-65
2023/12/26 06:49:53;;;;;;;;;;;;;;;0.90;97.53;95009.53;5018060;28;20317;-65
2023/12/26 06:52:18;;;;;;;;;;;;;;;0.55;100.00;94998.50;5016428;28;19917;-65
2023/12/26 06:54:44;;;;;;;;;;;;;;;0.59;100.00;95007.75;5016802;28;20357;-64
2023/12/26 06:57:15;;;;;;;;;;;;;;;0.82;99.60;95004.97;5018821;28;19928;-64
2023/12/26 06:59:44;;;;;;;;;;;;;;;0.77;97.17;94994.84;5018499;28;19925;-65
2023/12/26 07:02:09;;;;;;;;;;;;;;;0.53;99.00;95024.81;5018220;28;20383;-64
2023/12/26 07:04:34;;;;;;;;;;;;;;;0.10;100.00;95005.66;5017661;28;19924;-64
2023/12/26 07:06:59;;;;;;;;;;;;;;;0.10;100.00;95017.94;5018150;28;19921;-65
2023/12/26 07:09:25;;;;;;;;;;;;;;;0.15;100.00;95032.31;5018949;28;20136;-64
2023/12/26 07:11:51;;;;;;;;;;;;;;;0.43;100.00;95034.41;5018057;28;19921;-64
2023/12/26 07:14:16;;;;;;;;;;;;;;;0.49;100.00;95039.13;5012864;28;19928;-65
2023/12/26 07:16:41;;;;;;;;;;;;;;;0.52;99.91;95033.66;5017769;28;19921;-64
2023/12/26 07:19:07;;;;;;;;;;;;;;;0.52;99.97;95043.28;5017081;28;19932;-64
2023/12/26 07:21:32;;;;;;;;;;;;;;;0.62;99.69;95045.94;5018100;28;19929;-64
2023/12/26 07:23:57;;;;;;;;;;;;;;;0.59;99.02;95049.66;5012301;28;19921;-65
2023/12/26 07:26:23;;;;;;;;;;;;;;;0.09;100.00;95043.28;5018024;28;20369;-65
2023/12/26 07:28:48;;;;;;;;;;;;;;;0.01;100.00;95058.78;5012264;28;19925;-64
2023/12/26 07:31:19;;;;;;;;;;;;;;;0.09;100.00;95066.84;5012093;28;19964;-65
2023/12/26 07:33:45;;;;;;;;;;;;;;;0.27;100.00;95103.75;5017097;28;20851;-64
2023/12/26 07:36:11;;;;;;;;;;;;;;;0.42;100.00;95074.66;5017907;28;19955;-64
2023/12/26 07:38:36;;;;;;;;;;;;;;;0.39;100.00;95083.59;5017206;28;19971;-64
2023/12/26 07:41:01;;;;;;;;;;;;;;;0.23;100.00;95094.50;5017803;28;19932;-65
2023/12/26 07:43:28;;;;;;;;;;;;;;;-0.16;100.00;95081.09;5016652;28;20397;-65
2023/12/26 07:45:54;;;;;;;;;;;;;;;0.16;100.00;95094.19;5017425;28;20353;-64
2023/12/26 07:48:19;;;;;;;;;;;;;;;0.28;100.00;95102.81;5017431;28;20386;-65
2023/12/26 07:50:44;;;;;;;;;;;;;;;0.20;100.00;95092.13;5017728;28;19959;-65
2023/12/26 07:53:09;;;;;;;;;;;;;;;-0.03;100.00;95126.25;5017095;28;19991;-64
2023/12/26 07:55:35;;;;;;;;;;;;;;;-0.06;100.00;95118.66;5016198;28;20143;-64
2023/12/26 07:58:00;;;;;;;;;;;;;;;-0.11;100.00;95132.13;5016714;28;19921;-65
2023/12/26 08:00:25;;;;;;;;;;;;;;;0.22;100.00;95124.28;5017318;28;19925;-64
2023/12/26 08:02:51;;;;;;;;;;;;;;;0.30;100.00;95111.38;5016917;28;20003;-65
2023/12/26 08:05:16;;;;;;;;;;;;;;;0.42;100.00;95140.13;5017867;28;19921;-64
2023/12/26 08:07:41;;;;;;;;;;;;;;;0.21;100.00;95127.84;5017117;28;20453;-65
2023/12/26 08:10:07;;;;;;;;;;;;;;;0.08;100.00;95125.41;5017098;28;19933;-65
2023/12/26 08:12:32;;;;;;;;;;;;;;;-0.05;100.00;95141.25;5017387;28;19924;-64
2023/12/26 08:14:58;;;;;;;;;;;;;;;0.17;100.00;95139.53;5012438;28;20026;-64
2023/12/26 08:17:23;;;;;;;;;;;;;;;0.03;100.00;95138.00;5016285;28;19952;-64
2023/12/26 08:19:49;;;;;;;;;;;;;;;0.09;100.00;95158.47;5015295;28;19936;-65
2023/12/26 08:22:14;;;;;;;;;;;;;;;-0.02;100.00;95150.66;5016922;28;19929;-65
2023/12/26 08:24:39;;;;;;;;;;;;;;;-0.16;100.00;95147.34;5017061;28;19923;-64
2023/12/26 08:27:04;;;;;;;;;;;;;;;0.37;100.00;95145.75;5016876;28;20279;-64
2023/12/26 08:29:30;;;;;;;;;;;;;;;0.45;100.00;95151.19;5010810;28;19968;-64
2023/12/26 08:31:55;;;;;;;;;;;;;;;0.38;100.00;95163.13;5012597;28;19921;-65
2023/12/26 08:34:20;;;;;;;;;;;;;;;0.65;98.86;95155.75;5016803;28;19929;-64
2023/12/26 08:36:46;;;;;;;;;;;;;;;0.95;97.60;95154.97;5017275;28;19924;-64
2023/12/26 08:39:11;;;;;;;;;;;;;;;1.00;94.81;95162.44;5016275;28;19928;-64
2023/12/26 08:41:37;;;;;;;;;;;;;;;0.26;99.46;95201.63;5016314;28;19925;-65
2023/12/26 08:44:02;;;;;;;;;;;;;;;0.62;99.27;95197.91;5016757;28;20036;-64
2023/12/26 08:46:27;;;;;;;;;;;;;;;0.41;99.50;95214.44;5016184;28;19921;-64
2023/12/26 08:48:53;;;;;;;;;;;;;;;0.40;98.58;95197.03;5017023;28;19948;-64
2023/12/26 08:51:19;;;;;;;;;;;;;;;0.71;97.50;95186.66;5015755;28;19990;-65
2023/12/26 08:53:45;;;;;;;;;;;;;;;0.61;97.96;95206.75;5012291;28;20016;-65
2023/12/26 08:56:11;;;;;;;;;;;;;;;0.68;96.55;95200.03;5017255;28;20314;-64
2023/12/26 08:58:36;;;;;;;;;;;;;;;0.87;94.32;95206.38;5016797;28;19929;-64
2023/12/26 09:01:01;;;;;;;;;;;;;;;0.64;97.05;95215.16;5016272;28;19921;-65
2023/12/26 09:03:27;;;;;;;;;;;;;;;0.34;97.47;95237.66;5016420;28;20033;-64
2023/12/26 09:05:52;;;;;;;;;;;;;;;0.76;95.07;95244.78;5016472;28;19928;-65
2023/12/26 09:08:18;;;;;;;;;;;;;;;0.64;95.70;95230.91;5019263;28;19992;-64
2023/12/26 09:10:43;;;;;;;;;;;;;;;0.45;95.17;95240.25;5020387;28;20386;-64
2023/12/26 09:13:08;;;;;;;;;;;;;;;0.56;94.57;95234.16;5021255;28;19990;-65
2023/12/26 09:15:33;;;;;;;;;;;;;;;0.47;93.85;95240.13;5015154;28;19956;-64
2023/12/26 09:17:59;;;;;;;;;;;;;;;0.76;90.21;95243.94;5020308;28;19920;-64
2023/12/26 09:20:24;;;;;;;;;;;;;;;0.47;92.34;95245.34;5020478;28;19964;-65
2023/12/26 09:22:50;;;;;;;;;;;;;;;0.64;91.11;95245.78;5015302;28;19925;-64
2023/12/26 09:25:15;;;;;;;;;;;;;;;0.67;90.96;95240.28;5019405;28;20619;-64
2023/12/26 09:27:41;;;;;;;;;;;;;;;0.96;88.06;95243.13;5016782;28;19928;-64
2023/12/26 09:30:09;;;;;;;;;;;;;;;0.61;89.88;95240.81;5016981;28;19925;-64
2023/12/26 09:32:34;;;;;;;;;;;;;;;0.67;89.03;95246.38;5019869;28;19947;-64
2023/12/26 09:34:59;;;;;;;;;;;;;;;0.74;89.47;95249.31;5019289;28;19934;-64
2023/12/26 09:37:24;;;;;;;;;;;;;;;0.92;87.97;95254.84;5020212;28;19960;-65
2023/12/26 09:39:50;;;;;;;;;;;;;;;1.09;87.47;95255.25;5020081;28;20517;-64
2023/12/26 09:42:15;;;;;;;;;;;;;;;1.31;85.46;95262.16;5018648;28;19929;-64
2023/12/26 09:44:40;;;;;;;;;;;;;;;1.31;85.87;95272.63;5018141;28;19925;-65
2023/12/26 09:47:05;;;;;;;;;;;;;;;1.29;85.89;95277.16;5019641;28;20429;-64
2023/12/26 09:49:31;;;;;;;;;;;;;;;1.52;82.89;95277.03;5019772;28;19924;-64
2023/12/26 09:51:58;;;;;;;;;;;;;;;1.31;83.74;95284.91;5019714;28;19917;-64
2023/12/26 09:54:23;;;;;;;;;;;;;;;1.59;82.90;95280.84;5012936;28;19936;-64
2023/12/26 09:56:48;;;;;;;;;;;;;;;1.45;82.45;95292.47;5017594;28;19917;-64
2023/12/26 09:59:14;;;;;;;;;;;;;;;1.10;83.23;95310.16;5019021;28;19929;-64
2023/12/26 10:01:40;;;;;;;;;;;;;;;0.95;84.97;95288.66;5018472;28;20286;-64
2023/12/26 10:04:05;;;;;;;;;;;;;;;1.01;84.03;95291.72;5017982;28;19921;-64
2023/12/26 10:06:31;;;;;;;;;;;;;;;0.93;84.45;95308.94;5019203;28;19921;-64
2023/12/26 10:08:57;;;;;;;;;;;;;;;1.05;85.58;95296.59;5019161;28;19921;-64
2023/12/26 10:11:22;;;;;;;;;;;;;;;1.59;83.20;95293.97;5018317;28;20456;-64
2023/12/26 10:13:52;;;;;;;;;;;;;;;1.28;83.93;95298.28;5017991;28;20104;-64
2023/12/26 10:16:18;;;;;;;;;;;;;;;1.18;84.02;95308.69;5019668;28;20040;-64
2023/12/26 10:18:43;;;;;;;;;;;;;;;0.85;83.73;95299.06;5018038;28;19996;-64
2023/12/26 10:21:08;;;;;;;;;;;;;;;0.71;84.51;95308.06;5018905;28;19960;-64
2023/12/26 10:23:34;;;;;;;;;;;;;;;0.58;86.26;95305.59;5018584;28;19924;-64
2023/12/26 10:25:59;;;;;;;;;;;;;;;0.71;84.43;95299.34;5018879;28;19921;-65
2023/12/26 10:28:24;;;;;;;;;;;;;;;0.73;83.40;95305.31;5017289;28;19920;-65
2023/12/26 10:30:50;;;;;;;;;;;;;;;0.86;85.13;95313.03;5016160;28;19921;-65
2023/12/26 10:33:22;;;;;;;;;;;;;;;0.74;84.75;95317.44;5019051;28;20059;-65
2023/12/26 10:35:59;;;;;;;;;;;;;;;0.78;84.10;95318.06;5018381;28;19936;-65
2023/12/26 10:38:25;;;;;;;;;;;;;;;0.67;84.60;95311.03;5018384;28;19929;-65
2023/12/26 10:40:50;;;;;;;;;;;;;;;1.18;83.05;95299.06;5016172;28;19993;-65
2023/12/26 10:43:15;;;;;;;;;;;;;;;0.93;81.46;95310.72;5016127;28;20610;-65
2023/12/26 10:45:40;;;;;;;;;;;;;;;0.70;82.04;95321.28;5016873;28;19958;-65
2023/12/26 10:48:06;;;;;;;;;;;;;;;0.88;81.11;95331.25;5017704;28;19920;-66
2023/12/26 10:50:32;;;;;;;;;;;;;;;1.13;81.21;95316.13;5016102;28;20433;-65
2023/12/26 10:53:04;;;;;;;;;;;;;;;1.04;79.51;95315.09;5016584;28;19979;-65
2023/12/26 10:55:29;;;;;;;;;;;;;;;1.31;79.56;95317.22;5016538;28;20282;-64
2023/12/26 10:57:55;;;;;;;;;;;;;;;0.85;80.20;95313.94;5017961;28;19948;-65
2023/12/26 11:00:47;;;;;;;;;;;;;;;0.90;80.93;95326.69;5017330;28;20231;-65
2023/12/26 13:54:01;;;;;;;;;;;;;;;0.63;72.59;95478.16;4995828;28;20044;-64
2023/12/26 13:56:44;;;;;;;;;;;;;;;0.93;71.72;95466.25;4999137;28;20632;-64
2023/12/26 13:59:29;;;;;;;;;;;;;;;0.55;73.54;95481.38;4999709;28;20032;-67
2023/12/26 14:02:12;;;;;;;;;;;;;;;0.57;73.46;95487.34;4994643;28;19926;-65
2023/12/26 14:04:56;;;;;;;;;;;;;;;0.59;74.12;95489.84;4999658;28;19913;-64
2023/12/26 14:07:44;;;;;;;;;;;;;;;0.56;73.68;95490.91;4999396;28;20639;-65
2023/12/26 14:10:27;;;;;;;;;;;;;;;0.81;72.23;95499.47;4998983;28;20036;-64
2023/12/26 14:13:12;;;;;;;;;;;;;;;0.76;72.51;95503.41;4999314;28;20517;-64
2023/12/26 14:15:56;;;;;;;;;;;;;;;0.76;72.15;95487.69;4993936;28;19921;-64
2023/12/26 14:18:40;;;;;;;;;;;;;;;0.44;73.57;95499.69;4995087;28;19921;-65
2023/12/26 14:21:24;;;;;;;;;;;;;;;0.89;72.70;95495.44;4998802;28;20438;-65
2023/12/26 14:24:08;;;;;;;;;;;;;;;0.80;72.28;95500.44;4992591;28;19922;-64
2023/12/26 14:26:52;;;;;;;;;;;;;;;1.14;71.23;95491.72;4999311;28;19960;-64
2023/12/26 14:29:36;;;;;;;;;;;;;;;0.90;72.25;95499.72;4998138;28;19928;-65
2023/12/26 14:32:20;;;;;;;;;;;;;;;1.19;71.58;95504.47;4993773;28;20522;-64
2023/12/26 14:35:05;;;;;;;;;;;;;;;0.65;73.72;95522.59;4993956;28;19972;-64
2023/12/26 14:37:49;;;;;;;;;;;;;;;0.93;72.03;95512.59;4997604;28;19925;-65
2023/12/26 14:40:33;;;;;;;;;;;;;;;0.91;73.28;95512.69;4998690;28;19922;-65
2023/12/26 14:43:17;;;;;;;;;;;;;;;0.97;72.96;95514.00;4991458;28;19921;-65
2023/12/26 14:46:01;;;;;;;;;;;;;;;0.69;74.54;95516.16;4997984;28;19921;-65
2023/12/26 14:48:45;;;;;;;;;;;;;;;1.01;73.07;95522.47;4998341;28;19921;-65
2023/12/26 14:51:29;;;;;;;;;;;;;;;0.68;73.22;95530.22;4993194;28;19932;-64
2023/12/26 14:54:15;;;;;;;;;;;;;;;0.33;75.21;95529.34;4996964;28;19996;-64
2023/12/26 14:56:59;;;;;;;;;;;;;;;0.26;75.81;95544.69;4997031;28;20442;-64
2023/12/26 14:59:43;;;;;;;;;;;;;;;0.10;76.77;95550.22;4997094;28;19955;-65
2023/12/26 15:02:08;;;;;;;;;;;;;;;-0.01;77.63;95545.78;4997286;28;19925;-64
2023/12/26 15:04:33;;;;;;;;;;;;;;;0.27;76.70;95543.72;4997941;28;20022;-65
2023/12/26 15:07:00;;;;;;;;;;;;;;;0.22;76.14;95551.09;4996547;28;19925;-64
2023/12/26 15:09:25;;;;;;;;;;;;;;;0.16;77.14;95551.53;4998147;28;20425;-65
2023/12/26 15:11:50;;;;;;;;;;;;;;;0.42;76.25;95546.16;4997081;28;19927;-65
2023/12/26 15:14:16;;;;;;;;;;;;;;;0.40;75.98;95548.88;4997860;28;20468;-65
2023/12/26 15:16:41;;;;;;;;;;;;;;;0.40;76.30;95553.28;4996552;28;19928;-65
2023/12/26 15:19:06;;;;;;;;;;;;;;;0.43;75.26;95553.88;4997184;28;20410;-65
2023/12/26 15:21:32;;;;;;;;;;;;;;;0.34;75.42;95565.03;4997801;28;20158;-65
2023/12/26 15:23:57;;;;;;;;;;;;;;;0.02;76.59;95563.88;4998229;28;20280;-65
2023/12/26 15:26:22;;;;;;;;;;;;;;;0.28;75.83;95566.34;4997769;28;20024;-65
2023/12/26 15:28:48;;;;;;;;;;;;;;;-0.23;77.17;95576.13;4997971;28;20001;-65
2023/12/26 15:31:16;;;;;;;;;;;;;;;-0.59;77.24;95577.84;4997751;28;20350;-64
2023/12/26 15:33:46;;;;;;;;;;;;;;;-0.32;76.91;95577.66;4997711;28;19928;-64
2023/12/26 15:36:15;;;;;;;;;;;;;;;-0.64;77.61;95586.00;4997440;28;19929;-64
2023/12/26 15:38:40;;;;;;;;;;;;;;;-0.78;79.05;95605.28;4992755;28;20019;-64
2023/12/26 15:41:05;;;;;;;;;;;;;;;-0.71;78.48;95609.16;4993904;28;20466;-64
2023/12/26 15:43:31;;;;;;;;;;;;;;;-0.34;77.59;95599.66;4997575;28;19925;-64